Time,TemperatureF,DewpointF,PressureIn,WindDirection,WindDirectionDegrees,WindSpeedMPH,WindSpeedGustMPH,Humidity,HourlyPrecipIn,Conditions,Clouds,dailyrainin,SoftwareType,DateUTC
2013-06-01 00:00:00,53.5,48.8,29.92,SW,230,0.0,1.0,84,0.00,,,0.00,Wunderground v.1.15,2013-06-01 07:00:00,
2013-06-01 00:10:00,53.3,48.9,29.92,SW,230,0.0,0.0,85,0.00,,,0.00,Wunderground v.1.15,2013-06-01 07:10:00,
2013-06-01 00:15:00,53.2,48.8,29.92,SW,230,0.0,0.0,85,0.00,,,0.00,Wunderground v.1.15,2013-06-01 07:15:00,
2013-06-01 00:20:00,53.1,48.4,29.92,SW,230,0.0,0.0,84,0.00,,,0.00,Wunderground v.1.15,2013-06-01 07:20:00,
2013-06-01 00:25:00,52.9,48.2,29.92,SW,230,0.0,0.0,84,0.00,,,0.00,Wunderground v.1.15,2013-06-01 07:25:00,
2013-06-01 00:30:00,52.8,48.4,29.92,SW,230,0.0,0.0,85,0.00,,,0.00,Wunderground v.1.15,2013-06-01 07:30:00,
2013-06-01 00:40:00,52.7,48.3,29.92,SW,230,0.0,0.0,85,0.00,,,0.00,Wunderground v.1.15,2013-06-01 07:40:00,
2013-06-01 00:45:00,52.7,48.3,29.91,SW,230,0.0,0.0,85,0.00,,,0.00,Wunderground v.1.15,2013-06-01 07:45:00,
2013-06-01 00:50:00,52.6,48.2,29.91,SW,230,0.0,0.0,85,0.00,,,0.00,Wunderground v.1.15,2013-06-01 07:50:00,
2013-06-01 00:55:00,52.4,47.7,29.92,SW,230,0.0,0.0,84,0.00,,,0.00,Wunderground v.1.15,2013-06-01 07:55:00,
2013-06-01 01:00:00,52.3,47.6,29.91,SW,230,0.0,1.0,84,0.00,,,0.00,Wunderground v.1.15,2013-06-01 08:00:00,
2013-06-01 01:05:00,52.2,47.5,29.91,SW,230,0.0,1.0,84,0.00,,,0.00,Wunderground v.1.15,2013-06-01 08:05:00,
2013-06-01 01:15:00,51.9,47.5,29.91,SW,229,0.0,1.0,85,0.00,,,0.00,Wunderground v.1.15,2013-06-01 08:15:00,
2013-06-01 01:20:00,51.9,47.2,29.91,SW,230,0.0,1.0,84,0.00,,,0.00,Wunderground v.1.15,2013-06-01 08:20:00,
2013-06-01 01:25:00,51.9,47.2,29.92,SW,230,0.0,1.0,84,0.00,,,0.00,Wunderground v.1.15,2013-06-01 08:25:00,
2013-06-01 01:30:00,51.8,47.1,29.92,SW,230,0.0,1.0,84,0.00,,,0.00,Wunderground v.1.15,2013-06-01 08:30:00,
2013-06-01 01:35:00,51.8,47.1,29.91,SW,230,0.0,1.0,84,0.00,,,0.00,Wunderground v.1.15,2013-06-01 08:35:00,
2013-06-01 01:40:00,51.7,47.0,29.91,SW,230,0.0,1.0,84,0.00,,,0.00,Wunderground v.1.15,2013-06-01 08:40:00,
2013-06-01 01:45:00,51.7,47.0,29.91,SW,230,0.0,1.0,84,0.00,,,0.00,Wunderground v.1.15,2013-06-01 08:45:00,
2013-06-01 01:50:00,51.7,47.0,29.91,SW,230,0.0,1.0,84,0.00,,,0.00,Wunderground v.1.15,2013-06-01 08:50:00,
2013-06-01 01:55:00,51.7,47.0,29.91,SW,230,0.0,1.0,84,0.00,,,0.00,Wunderground v.1.15,2013-06-01 08:55:00,
2013-06-01 02:00:00,51.7,46.7,29.91,SW,230,0.0,1.0,83,0.00,,,0.00,Wunderground v.1.15,2013-06-01 09:00:00,
2013-06-01 02:05:00,51.7,46.7,29.91,SW,230,0.0,1.0,83,0.00,,,0.00,Wunderground v.1.15,2013-06-01 09:05:00,
2013-06-01 02:15:00,51.8,47.1,29.91,SW,230,0.0,1.0,84,0.00,,,0.00,Wunderground v.1.15,2013-06-01 09:15:00,
2013-06-01 02:20:00,51.8,47.1,29.91,SW,230,0.0,1.0,84,0.00,,,0.00,Wunderground v.1.15,2013-06-01 09:20:00,
2013-06-01 02:25:00,51.9,47.2,29.90,SW,230,0.0,1.0,84,0.00,,,0.00,Wunderground v.1.15,2013-06-01 09:25:00,
2013-06-01 02:30:00,52.0,47.3,29.90,SW,230,0.0,1.0,84,0.00,,,0.00,Wunderground v.1.15,2013-06-01 09:30:00,
2013-06-01 02:35:00,52.1,47.7,29.90,SW,230,0.0,1.0,85,0.00,,,0.00,Wunderground v.1.15,2013-06-01 09:35:00,
2013-06-01 02:40:00,52.2,47.8,29.90,SW,230,0.0,1.0,85,0.00,,,0.00,Wunderground v.1.15,2013-06-01 09:40:00,
2013-06-01 02:50:00,52.3,47.9,29.90,SW,230,0.0,1.0,85,0.00,,,0.00,Wunderground v.1.15,2013-06-01 09:50:00,
2013-06-01 02:55:00,52.3,47.9,29.90,SW,230,0.0,1.0,85,0.00,,,0.00,Wunderground v.1.15,2013-06-01 09:55:00,
2013-06-01 03:00:00,52.4,48.0,29.90,SW,230,0.0,1.0,85,0.00,,,0.00,Wunderground v.1.15,2013-06-01 10:00:00,
2013-06-01 03:05:00,52.4,48.0,29.90,SW,230,0.0,1.0,85,0.00,,,0.00,Wunderground v.1.15,2013-06-01 10:05:00,
2013-06-01 03:10:00,52.4,48.0,29.89,SW,230,0.0,1.0,85,0.00,,,0.00,Wunderground v.1.15,2013-06-01 10:10:00,
2013-06-01 03:20:00,52.6,48.2,29.89,SW,230,0.0,1.0,85,0.00,,,0.00,Wunderground v.1.15,2013-06-01 10:20:00,
2013-06-01 03:25:00,52.6,48.2,29.89,SW,230,0.0,1.0,85,0.00,,,0.00,Wunderground v.1.15,2013-06-01 10:25:00,
2013-06-01 03:30:00,52.6,48.2,29.89,SW,230,0.0,1.0,85,0.00,,,0.00,Wunderground v.1.15,2013-06-01 10:30:00,
2013-06-01 03:35:00,52.6,48.2,29.89,SW,230,0.0,1.0,85,0.00,,,0.00,Wunderground v.1.15,2013-06-01 10:35:00,
2013-06-01 03:40:00,52.6,48.2,29.89,SW,230,0.0,1.0,85,0.00,,,0.00,Wunderground v.1.15,2013-06-01 10:40:00,
2013-06-01 03:45:00,52.6,48.2,29.89,SW,230,0.0,1.0,85,0.00,,,0.00,Wunderground v.1.15,2013-06-01 10:45:00,
2013-06-01 03:55:00,52.6,48.2,29.89,SW,230,0.0,1.0,85,0.00,,,0.00,Wunderground v.1.15,2013-06-01 10:55:00,
2013-06-01 04:00:00,52.6,48.2,29.89,SW,230,0.0,1.0,85,0.00,,,0.00,Wunderground v.1.15,2013-06-01 11:00:00,
2013-06-01 04:05:00,52.6,48.2,29.88,SW,230,0.0,1.0,85,0.00,,,0.00,Wunderground v.1.15,2013-06-01 11:05:00,
2013-06-01 04:10:00,52.7,48.3,29.88,SW,230,0.0,1.0,85,0.00,,,0.00,Wunderground v.1.15,2013-06-01 11:10:00,
2013-06-01 04:15:00,52.7,48.3,29.88,SW,230,0.0,1.0,85,0.00,,,0.00,Wunderground v.1.15,2013-06-01 11:15:00,
2013-06-01 04:20:00,52.7,48.3,29.88,SW,230,0.0,1.0,85,0.00,,,0.00,Wunderground v.1.15,2013-06-01 11:20:00,
2013-06-01 04:25:00,52.7,48.3,29.88,SW,230,0.0,1.0,85,0.00,,,0.00,Wunderground v.1.15,2013-06-01 11:25:00,
2013-06-01 04:30:00,52.6,48.2,29.88,SW,230,0.0,1.0,85,0.00,,,0.00,Wunderground v.1.15,2013-06-01 11:30:00,
2013-06-01 04:40:00,52.5,48.1,29.88,SW,230,0.0,1.0,85,0.00,,,0.00,Wunderground v.1.15,2013-06-01 11:40:00,
2013-06-01 04:50:00,52.4,48.0,29.88,SW,230,0.0,1.0,85,0.00,,,0.00,Wunderground v.1.15,2013-06-01 11:50:00,
2013-06-01 05:00:00,52.2,48.1,29.88,SW,230,0.0,1.0,86,0.00,,,0.00,Wunderground v.1.15,2013-06-01 12:00:00,
2013-06-01 05:10:00,52.2,48.1,29.87,SW,232,0.0,1.0,86,0.00,,,0.00,Wunderground v.1.15,2013-06-01 12:10:00,
2013-06-01 05:20:00,52.0,47.9,29.87,SW,233,0.0,1.0,86,0.00,,,0.00,Wunderground v.1.15,2013-06-01 12:20:00,
2013-06-01 05:25:00,51.9,47.8,29.87,SW,234,0.0,1.0,86,0.00,,,0.00,Wunderground v.1.15,2013-06-01 12:25:00,
2013-06-01 05:35:00,51.7,47.6,29.87,SW,235,0.0,1.0,86,0.00,,,0.00,Wunderground v.1.15,2013-06-01 12:35:00,
2013-06-01 05:45:00,51.6,47.5,29.87,SW,234,0.0,1.0,86,0.00,,,0.00,Wunderground v.1.15,2013-06-01 12:45:00,
2013-06-01 05:55:00,51.4,47.7,29.87,SW,234,0.0,1.0,87,0.00,,,0.00,Wunderground v.1.15,2013-06-01 12:55:00,
2013-06-01 06:05:00,51.4,48.0,29.88,SW,234,0.0,1.0,88,0.00,,,0.00,Wunderground v.1.15,2013-06-01 13:05:00,
2013-06-01 06:10:00,51.4,48.0,29.88,SW,234,0.0,1.0,88,0.00,,,0.00,Wunderground v.1.15,2013-06-01 13:10:00,
2013-06-01 06:15:00,51.4,48.0,29.88,SW,234,0.0,1.0,88,0.00,,,0.00,Wunderground v.1.15,2013-06-01 13:15:00,
2013-06-01 06:25:00,51.6,48.5,29.89,WSW,239,0.0,1.0,89,0.00,,,0.00,Wunderground v.1.15,2013-06-01 13:25:00,
2013-06-01 06:35:00,52.1,49.3,29.89,NE,35,0.0,1.0,90,0.00,,,0.00,Wunderground v.1.15,2013-06-01 13:35:00,
2013-06-01 06:45:00,52.8,49.6,29.88,NE,35,0.0,1.0,89,0.00,,,0.00,Wunderground v.1.15,2013-06-01 13:45:00,
2013-06-01 06:55:00,53.0,49.5,29.88,NE,35,0.0,1.0,88,0.00,,,0.00,Wunderground v.1.15,2013-06-01 13:55:00,
2013-06-01 07:05:00,53.2,50.0,29.88,NE,35,0.0,1.0,89,0.00,,,0.00,Wunderground v.1.15,2013-06-01 14:05:00,
2013-06-01 07:15:00,53.7,50.5,29.88,NE,35,0.0,1.0,89,0.00,,,0.00,Wunderground v.1.15,2013-06-01 14:15:00,
2013-06-01 07:25:00,54.5,51.0,29.88,NE,35,0.0,1.0,88,0.00,,,0.00,Wunderground v.1.15,2013-06-01 14:25:00,
2013-06-01 07:35:00,55.5,51.1,29.88,NE,35,0.0,1.0,85,0.00,,,0.00,Wunderground v.1.15,2013-06-01 14:35:00,
2013-06-01 07:40:00,56.0,51.6,29.88,NE,35,0.0,1.0,85,0.00,,,0.00,Wunderground v.1.15,2013-06-01 14:40:00,
2013-06-01 07:45:00,56.9,51.8,29.89,NE,35,0.0,1.0,83,0.00,,,0.00,Wunderground v.1.15,2013-06-01 14:45:00,
2013-06-01 07:50:00,58.1,52.0,29.89,WSW,243,1.0,3.0,80,0.00,,,0.00,Wunderground v.1.15,2013-06-01 14:50:00,
2013-06-01 08:00:00,59.9,52.3,29.89,WSW,243,1.0,1.0,76,0.00,,,0.00,Wunderground v.1.15,2013-06-01 15:00:00,
2013-06-01 08:05:00,60.4,52.8,29.89,WSW,243,1.0,1.0,76,0.00,,,0.00,Wunderground v.1.15,2013-06-01 15:05:00,
2013-06-01 08:15:00,61.2,53.2,29.89,SW,236,2.0,3.0,75,0.00,,,0.00,Wunderground v.1.15,2013-06-01 15:15:00,
2013-06-01 08:25:00,61.9,53.1,29.90,WSW,244,2.0,4.0,73,0.00,,,0.00,Wunderground v.1.15,2013-06-01 15:25:00,
2013-06-01 08:35:00,62.8,53.6,29.90,SSW,203,2.0,2.0,72,0.00,,,0.00,Wunderground v.1.15,2013-06-01 15:35:00,
2013-06-01 08:40:00,63.2,53.6,29.90,SW,230,3.0,3.0,71,0.00,,,0.00,Wunderground v.1.15,2013-06-01 15:40:00,
2013-06-01 08:50:00,64.2,53.4,29.90,SW,229,2.0,3.0,68,0.00,,,0.00,Wunderground v.1.15,2013-06-01 15:50:00,
2013-06-01 09:00:00,65.2,54.0,29.90,WSW,237,2.0,4.0,67,0.00,,,0.00,Wunderground v.1.15,2013-06-01 16:00:00,
2013-06-01 09:10:00,66.0,53.9,29.90,SW,228,3.0,4.0,65,0.00,,,0.00,Wunderground v.1.15,2013-06-01 16:10:00,
2013-06-01 09:20:00,66.9,53.9,29.89,SW,221,2.0,2.0,63,0.00,,,0.00,Wunderground v.1.15,2013-06-01 16:20:00,
2013-06-01 09:30:00,67.9,54.0,29.89,SW,227,3.0,3.0,61,0.00,,,0.00,Wunderground v.1.15,2013-06-01 16:30:00,
2013-06-01 09:40:00,68.6,54.2,29.89,SW,224,3.0,3.0,60,0.00,,,0.00,Wunderground v.1.15,2013-06-01 16:40:00,
2013-06-01 09:45:00,69.2,54.7,29.89,SW,235,3.0,3.0,60,0.00,,,0.00,Wunderground v.1.15,2013-06-01 16:45:00,
2013-06-01 09:50:00,69.8,54.8,29.89,SW,223,2.0,2.0,59,0.00,,,0.00,Wunderground v.1.15,2013-06-01 16:50:00,
2013-06-01 09:55:00,70.6,54.6,29.89,WSW,258,3.0,3.0,57,0.00,,,0.00,Wunderground v.1.15,2013-06-01 16:55:00,
2013-06-01 10:05:00,71.0,54.5,29.89,SW,234,4.0,4.0,56,0.00,,,0.00,Wunderground v.1.15,2013-06-01 17:05:00,
2013-06-01 10:10:00,71.1,54.1,29.89,WSW,246,4.0,5.0,55,0.00,,,0.00,Wunderground v.1.15,2013-06-01 17:10:00,
2013-06-01 10:15:00,71.1,54.6,29.89,SW,233,4.0,5.0,56,0.00,,,0.00,Wunderground v.1.15,2013-06-01 17:15:00,
2013-06-01 10:25:00,71.5,54.5,29.88,SW,234,3.0,5.0,55,0.00,,,0.00,Wunderground v.1.15,2013-06-01 17:25:00,
2013-06-01 10:35:00,72.7,55.1,29.88,SSW,195,3.0,4.0,54,0.00,,,0.00,Wunderground v.1.15,2013-06-01 17:35:00,
2013-06-01 10:45:00,74.4,55.1,29.88,South,191,3.0,3.0,51,0.00,,,0.00,Wunderground v.1.15,2013-06-01 17:45:00,
2013-06-01 10:50:00,74.7,55.4,29.88,SW,225,4.0,4.0,51,0.00,,,0.00,Wunderground v.1.15,2013-06-01 17:50:00,
2013-06-01 11:00:00,75.7,55.7,29.87,WSW,252,3.0,5.0,50,0.00,,,0.00,Wunderground v.1.15,2013-06-01 18:00:00,
2013-06-01 11:10:00,76.4,55.8,29.87,SSW,212,4.0,5.0,49,0.00,,,0.00,Wunderground v.1.15,2013-06-01 18:10:00,
2013-06-01 11:20:00,77.1,55.9,29.87,SW,234,4.0,4.0,48,0.00,,,0.00,Wunderground v.1.15,2013-06-01 18:20:00,
2013-06-01 11:30:00,78.3,56.4,29.86,SW,234,4.0,5.0,47,0.00,,,0.00,Wunderground v.1.15,2013-06-01 18:30:00,
2013-06-01 11:40:00,78.5,56.0,29.87,SSW,198,5.0,7.0,46,0.00,,,0.00,Wunderground v.1.15,2013-06-01 18:40:00,
2013-06-01 11:45:00,79.1,55.9,29.86,SW,214,5.0,7.0,45,0.00,,,0.00,Wunderground v.1.15,2013-06-01 18:45:00,
2013-06-01 11:55:00,79.9,55.4,29.86,SSW,208,5.0,7.0,43,0.00,,,0.00,Wunderground v.1.15,2013-06-01 18:55:00,
2013-06-01 12:00:00,80.2,55.7,29.86,SW,220,5.0,5.0,43,0.00,,,0.00,Wunderground v.1.15,2013-06-01 19:00:00,
2013-06-01 12:05:00,80.3,54.5,29.86,WSW,238,5.0,5.0,41,0.00,,,0.00,Wunderground v.1.15,2013-06-01 19:05:00,
2013-06-01 12:10:00,80.5,54.6,29.86,SW,217,4.0,7.0,41,0.00,,,0.00,Wunderground v.1.15,2013-06-01 19:10:00,
2013-06-01 12:20:00,81.1,53.8,29.86,SW,225,4.0,4.0,39,0.00,,,0.00,Wunderground v.1.15,2013-06-01 19:20:00,
2013-06-01 12:30:00,81.6,54.9,29.86,SSW,193,5.0,8.0,40,0.00,,,0.00,Wunderground v.1.15,2013-06-01 19:30:00,
2013-06-01 12:40:00,81.5,54.2,29.86,SW,219,6.0,6.0,39,0.00,,,0.00,Wunderground v.1.15,2013-06-01 19:40:00,
2013-06-01 12:50:00,81.9,51.6,29.86,SW,226,5.0,9.0,35,0.00,,,0.00,Wunderground v.1.15,2013-06-01 19:50:00,
2013-06-01 12:55:00,81.9,52.3,29.86,SW,235,6.0,9.0,36,0.00,,,0.00,Wunderground v.1.15,2013-06-01 19:55:00,
2013-06-01 13:00:00,82.1,51.7,29.85,WSW,248,6.0,6.0,35,0.00,,,0.00,Wunderground v.1.15,2013-06-01 20:00:00,
2013-06-01 13:10:00,82.9,51.6,29.85,SW,234,5.0,8.0,34,0.00,,,0.00,Wunderground v.1.15,2013-06-01 20:10:00,
2013-06-01 13:20:00,83.9,51.7,29.85,SW,222,5.0,10.0,33,0.00,,,0.00,Wunderground v.1.15,2013-06-01 20:20:00,
2013-06-01 13:30:00,85.2,52.8,29.84,WNW,291,4.0,8.0,33,0.00,,,0.00,Wunderground v.1.15,2013-06-01 20:30:00,
2013-06-01 13:35:00,86.1,51.9,29.84,West,276,4.0,8.0,31,0.00,,,0.00,Wunderground v.1.15,2013-06-01 20:35:00,
2013-06-01 13:45:00,86.3,53.8,29.84,West,264,5.0,8.0,33,0.00,,,0.00,Wunderground v.1.15,2013-06-01 20:45:00,
2013-06-01 13:55:00,86.8,53.4,29.84,WSW,257,4.0,8.0,32,0.00,,,0.00,Wunderground v.1.15,2013-06-01 20:55:00,
2013-06-01 14:00:00,86.6,53.2,29.84,SW,236,5.0,9.0,32,0.00,,,0.00,Wunderground v.1.15,2013-06-01 21:00:00,
2013-06-01 14:10:00,86.5,54.0,29.84,SSW,212,6.0,8.0,33,0.00,,,0.00,Wunderground v.1.15,2013-06-01 21:10:00,
2013-06-01 14:20:00,87.1,51.9,29.83,WSW,242,5.0,8.0,30,0.00,,,0.00,Wunderground v.1.15,2013-06-01 21:20:00,
2013-06-01 14:30:00,86.4,52.2,29.83,WSW,246,6.0,8.0,31,0.00,,,0.00,Wunderground v.1.15,2013-06-01 21:30:00,
2013-06-01 14:40:00,86.3,51.2,29.83,WSW,249,7.0,10.0,30,0.00,,,0.00,Wunderground v.1.15,2013-06-01 21:40:00,
2013-06-01 14:50:00,86.3,53.0,29.82,WSW,248,7.0,8.0,32,0.00,,,0.00,Wunderground v.1.15,2013-06-01 21:50:00,
2013-06-01 15:00:00,86.4,52.2,29.82,West,259,6.0,8.0,31,0.00,,,0.00,Wunderground v.1.15,2013-06-01 22:00:00,
2013-06-01 15:10:00,86.2,53.7,29.82,SW,215,7.0,7.0,33,0.00,,,0.00,Wunderground v.1.15,2013-06-01 22:10:00,
2013-06-01 15:20:00,87.3,52.1,29.81,WSW,246,4.0,8.0,30,0.00,,,0.00,Wunderground v.1.15,2013-06-01 22:20:00,
2013-06-01 15:30:00,86.8,49.8,29.81,SW,233,5.0,8.0,28,0.00,,,0.00,Wunderground v.1.15,2013-06-01 22:30:00,
2013-06-01 15:40:00,87.9,49.7,29.81,NW,311,5.0,8.0,27,0.00,,,0.00,Wunderground v.1.15,2013-06-01 22:40:00,
2013-06-01 15:50:00,88.2,46.8,29.80,West,271,4.0,8.0,24,0.00,,,0.00,Wunderground v.1.15,2013-06-01 22:50:00,
2013-06-01 16:00:00,86.8,50.7,29.80,SW,220,5.0,8.0,29,0.00,,,0.00,Wunderground v.1.15,2013-06-01 23:00:00,
2013-06-01 16:05:00,85.5,51.4,29.80,South,188,5.0,8.0,31,0.00,,,0.00,Wunderground v.1.15,2013-06-01 23:05:00,
2013-06-01 16:15:00,87.0,50.9,29.79,West,264,3.0,4.0,29,0.00,,,0.00,Wunderground v.1.15,2013-06-01 23:15:00,
2013-06-01 16:25:00,86.8,51.6,29.79,WSW,237,5.0,5.0,30,0.00,,,0.00,Wunderground v.1.15,2013-06-01 23:25:00,
2013-06-01 16:35:00,84.1,52.7,29.79,SW,229,6.0,7.0,34,0.00,,,0.00,Wunderground v.1.15,2013-06-01 23:35:00,
2013-06-01 16:45:00,83.2,52.7,29.78,SW,220,6.0,7.0,35,0.00,,,0.00,Wunderground v.1.15,2013-06-01 23:45:00,
2013-06-01 16:55:00,84.1,51.9,29.78,SW,217,5.0,6.0,33,0.00,,,0.00,Wunderground v.1.15,2013-06-01 23:55:00,
2013-06-01 17:05:00,85.2,50.3,29.78,WSW,250,3.0,10.0,30,0.00,,,0.00,Wunderground v.1.15,2013-06-02 00:05:00,
2013-06-01 17:10:00,85.2,49.4,29.78,WNW,289,2.0,2.0,29,0.00,,,0.00,Wunderground v.1.15,2013-06-02 00:10:00,
2013-06-01 17:20:00,84.7,49.8,29.78,NW,314,2.0,10.0,30,0.00,,,0.00,Wunderground v.1.15,2013-06-02 00:20:00,
2013-06-01 17:30:00,85.6,50.6,29.77,SW,227,4.0,10.0,30,0.00,,,0.00,Wunderground v.1.15,2013-06-02 00:30:00,
2013-06-01 17:40:00,83.2,52.7,29.77,WSW,246,6.0,6.0,35,0.00,,,0.00,Wunderground v.1.15,2013-06-02 00:40:00,
2013-06-01 17:50:00,81.5,54.2,29.77,WSW,241,4.0,10.0,39,0.00,,,0.00,Wunderground v.1.15,2013-06-02 00:50:00,
2013-06-01 17:55:00,80.4,53.9,29.77,WSW,247,4.0,10.0,40,0.00,,,0.00,Wunderground v.1.15,2013-06-02 00:55:00,
2013-06-01 18:05:00,80.7,52.0,29.77,WNW,300,1.0,10.0,37,0.00,,,0.00,Wunderground v.1.15,2013-06-02 01:05:00,
2013-06-01 18:15:00,81.9,54.5,29.76,SW,233,2.0,10.0,39,0.00,,,0.00,Wunderground v.1.15,2013-06-02 01:15:00,
2013-06-01 18:20:00,81.0,54.4,29.76,WSW,250,3.0,3.0,40,0.00,,,0.00,Wunderground v.1.15,2013-06-02 01:20:00,
2013-06-01 18:25:00,80.9,53.6,29.76,WNW,290,2.0,10.0,39,0.00,,,0.00,Wunderground v.1.15,2013-06-02 01:25:00,
2013-06-01 18:30:00,81.9,51.6,29.76,WSW,238,1.0,10.0,35,0.00,,,0.00,Wunderground v.1.15,2013-06-02 01:30:00,
2013-06-01 18:35:00,82.9,50.8,29.76,WSW,252,2.0,10.0,33,0.00,,,0.00,Wunderground v.1.15,2013-06-02 01:35:00,
2013-06-01 18:45:00,80.7,54.8,29.76,SSW,208,5.0,10.0,41,0.00,,,0.00,Wunderground v.1.15,2013-06-02 01:45:00,
2013-06-01 18:55:00,77.2,54.8,29.76,SSW,207,4.0,10.0,46,0.00,,,0.00,Wunderground v.1.15,2013-06-02 01:55:00,
2013-06-01 19:05:00,75.3,55.4,29.76,WSW,253,3.0,10.0,50,0.00,,,0.00,Wunderground v.1.15,2013-06-02 02:05:00,
2013-06-01 19:10:00,74.3,55.5,29.76,SW,230,4.0,4.0,52,0.00,,,0.00,Wunderground v.1.15,2013-06-02 02:10:00,
2013-06-01 19:20:00,73.7,55.5,29.76,SW,224,2.0,2.0,53,0.00,,,0.00,Wunderground v.1.15,2013-06-02 02:20:00,
2013-06-01 19:25:00,73.5,55.3,29.76,WSW,248,1.0,2.0,53,0.00,,,0.00,Wunderground v.1.15,2013-06-02 02:25:00,
2013-06-01 19:35:00,72.4,54.8,29.76,WSW,238,3.0,5.0,54,0.00,,,0.00,Wunderground v.1.15,2013-06-02 02:35:00,
2013-06-01 19:40:00,71.6,55.1,29.76,SW,223,3.0,3.0,56,0.00,,,0.00,Wunderground v.1.15,2013-06-02 02:40:00,
2013-06-01 19:45:00,71.0,55.0,29.76,South,189,2.0,3.0,57,0.00,,,0.00,Wunderground v.1.15,2013-06-02 02:45:00,
2013-06-01 19:55:00,69.7,54.3,29.76,SSW,212,3.0,3.0,58,0.00,,,0.00,Wunderground v.1.15,2013-06-02 02:55:00,
2013-06-01 20:00:00,69.1,54.2,29.76,WSW,239,3.0,3.0,59,0.00,,,0.00,Wunderground v.1.15,2013-06-02 03:00:00,
2013-06-01 20:10:00,67.9,54.0,29.76,SW,231,2.0,6.0,61,0.00,,,0.00,Wunderground v.1.15,2013-06-02 03:10:00,
2013-06-01 20:20:00,66.8,53.8,29.76,SW,232,1.0,1.0,63,0.00,,,0.00,Wunderground v.1.15,2013-06-02 03:20:00,
2013-06-01 20:25:00,66.4,53.8,29.76,SW,216,1.0,6.0,64,0.00,,,0.00,Wunderground v.1.15,2013-06-02 03:25:00,
2013-06-01 20:30:00,65.9,52.9,29.76,WSW,254,2.0,6.0,63,0.00,,,0.00,Wunderground v.1.15,2013-06-02 03:30:00,
2013-06-01 20:35:00,65.3,52.8,29.76,SW,227,2.0,6.0,64,0.00,,,0.00,Wunderground v.1.15,2013-06-02 03:35:00,
2013-06-01 20:45:00,64.6,53.0,29.77,SW,227,1.0,2.0,66,0.00,,,0.00,Wunderground v.1.15,2013-06-02 03:45:00,
2013-06-01 20:55:00,64.0,52.8,29.77,SW,227,0.0,6.0,67,0.00,,,0.00,Wunderground v.1.15,2013-06-02 03:55:00,
2013-06-01 21:05:00,63.5,52.7,29.77,SW,227,0.0,6.0,68,0.00,,,0.00,Wunderground v.1.15,2013-06-02 04:05:00,
2013-06-01 21:10:00,63.2,52.5,29.77,SW,227,0.0,6.0,68,0.00,,,0.00,Wunderground v.1.15,2013-06-02 04:10:00,
2013-06-01 21:15:00,63.0,52.7,29.77,SW,227,0.0,6.0,69,0.00,,,0.00,Wunderground v.1.15,2013-06-02 04:15:00,
2013-06-01 21:25:00,62.5,52.6,29.77,SW,227,0.0,6.0,70,0.00,,,0.00,Wunderground v.1.15,2013-06-02 04:25:00,
2013-06-01 21:30:00,62.3,52.4,29.78,SW,227,0.0,6.0,70,0.00,,,0.00,Wunderground v.1.15,2013-06-02 04:30:00,
2013-06-01 21:40:00,61.8,52.7,29.78,SW,227,0.0,6.0,72,0.00,,,0.00,Wunderground v.1.15,2013-06-02 04:40:00,
2013-06-01 21:50:00,61.3,52.6,29.78,SW,227,0.0,6.0,73,0.00,,,0.00,Wunderground v.1.15,2013-06-02 04:50:00,
2013-06-01 22:00:00,60.6,52.3,29.78,SW,217,1.0,6.0,74,0.00,,,0.00,Wunderground v.1.15,2013-06-02 05:00:00,
2013-06-01 22:05:00,60.3,52.0,29.79,South,191,1.0,6.0,74,0.00,,,0.00,Wunderground v.1.15,2013-06-02 05:05:00,
2013-06-01 22:10:00,59.9,52.0,29.79,South,186,1.0,1.0,75,0.00,,,0.00,Wunderground v.1.15,2013-06-02 05:10:00,
2013-06-01 22:20:00,59.2,51.6,29.79,South,186,0.0,2.0,76,0.00,,,0.00,Wunderground v.1.15,2013-06-02 05:20:00,
2013-06-01 22:25:00,58.9,51.7,29.79,South,181,0.0,2.0,77,0.00,,,0.00,Wunderground v.1.15,2013-06-02 05:25:00,
2013-06-01 22:35:00,58.3,51.5,29.79,South,181,0.0,1.0,78,0.00,,,0.00,Wunderground v.1.15,2013-06-02 05:35:00,
2013-06-01 22:45:00,57.8,51.0,29.79,South,179,0.0,0.0,78,0.00,,,0.00,Wunderground v.1.15,2013-06-02 05:45:00,
2013-06-01 22:55:00,57.3,50.8,29.79,South,179,0.0,0.0,79,0.00,,,0.00,Wunderground v.1.15,2013-06-02 05:55:00,
2013-06-01 23:05:00,56.9,50.8,29.78,South,179,0.0,3.0,80,0.00,,,0.00,Wunderground v.1.15,2013-06-02 06:05:00,
2013-06-01 23:15:00,56.5,50.7,29.78,South,179,0.0,3.0,81,0.00,,,0.00,Wunderground v.1.15,2013-06-02 06:15:00,
2013-06-01 23:25:00,56.1,50.7,29.78,South,179,0.0,3.0,82,0.00,,,0.00,Wunderground v.1.15,2013-06-02 06:25:00,
2013-06-01 23:30:00,55.9,50.5,29.78,South,179,0.0,3.0,82,0.00,,,0.00,Wunderground v.1.15,2013-06-02 06:30:00,
2013-06-01 23:40:00,55.6,50.2,29.78,South,179,0.0,3.0,82,0.00,,,0.00,Wunderground v.1.15,2013-06-02 06:40:00,
2013-06-01 23:50:00,55.3,50.2,29.78,South,179,0.0,3.0,83,0.00,,,0.00,Wunderground v.1.15,2013-06-02 06:50:00,
2013-06-01 23:55:00,55.2,50.4,29.78,SSE,165,0.0,3.0,84,0.00,,,0.00,Wunderground v.1.15,2013-06-02 06:55:00,